Maple Lake, Minnesota
Current Conditions -  °F | °C
As of 7:15 AM on Tuesday 21 Oct 2014 (Local Time) from KMGG Reporting Station
Clear Clear  
Wind Chill:   Ceiling: Unl
Heat Index:   Visibility: 10mi
Dew Point:   Wind: 5mph
Humidity: 99%   Direction: 90°E
Pressure: 30.17"   Gusts: NA
Location:  45.23°N, 94°W
Report Text: KMGG 211215Z AUTO 09004KT 10SM CLR 03/03 A3017 RMK AO2 T00330032
Loading
Personal Weather Stations






























Interactive Weather Map
Tropical Storm Tracking
New forecast layout! Learn more

10-Day Weather Forecast

Advertisements
Track Severe Weather on mobile